sensor_id;sensor_type;location;lat;lon;timestamp;pressure;altitude;pressure_sealevel;temperature;humidity
82562;BME280;72228;51.208;10.468;2024-03-23T01:47:10;98205.81;;;7.86;79.75
82562;BME280;72228;51.208;10.468;2024-03-23T01:53:57;98215.19;;;7.76;80.03
82562;BME280;72228;51.208;10.468;2024-03-23T02:31:06;98144.25;;;7.68;79.10
82562;BME280;72228;51.208;10.468;2024-03-23T02:33:32;98141.16;;;7.69;79.34
82562;BME280;72228;51.208;10.468;2024-03-23T02:36:00;98133.28;;;7.85;78.58
82562;BME280;72228;51.208;10.468;2024-03-23T02:38:25;98132.59;;;7.79;78.91
82562;BME280;72228;51.208;10.468;2024-03-23T02:40:51;98131.94;;;7.74;78.76
82562;BME280;72228;51.208;10.468;2024-03-23T02:43:17;98114.09;;;7.80;78.66
82562;BME280;72228;51.208;10.468;2024-03-23T02:45:43;98113.47;;;7.83;78.92
82562;BME280;72228;51.208;10.468;2024-03-23T02:48:08;98114.09;;;7.80;78.09
82562;BME280;72228;51.208;10.468;2024-03-23T02:50:34;98109.69;;;7.70;78.57
82562;BME280;72228;51.208;10.468;2024-03-23T02:53:00;98102.25;;;7.79;77.89
82562;BME280;72228;51.208;10.468;2024-03-23T02:55:26;98096.72;;;7.71;78.01
82562;BME280;72228;51.208;10.468;2024-03-23T02:57:52;98094.59;;;7.68;78.29
82562;BME280;72228;51.208;10.468;2024-03-23T03:00:18;98099.47;;;7.71;78.61
82562;BME280;72228;51.208;10.468;2024-03-23T03:02:44;98094.59;;;7.68;78.59
82562;BME280;72228;51.208;10.468;2024-03-23T03:05:09;98098.47;;;7.67;78.44
82562;BME280;72228;51.208;10.468;2024-03-23T03:07:36;98109.53;;;7.67;78.82
82562;BME280;72228;51.208;10.468;2024-03-23T03:10:04;98107.56;;;7.67;78.98
82562;BME280;72228;51.208;10.468;2024-03-23T03:12:32;98092.47;;;7.65;79.12
82562;BME280;72228;51.208;10.468;2024-03-23T03:14:57;98094.59;;;7.68;79.10
82562;BME280;72228;51.208;10.468;2024-03-23T03:17:23;98091.34;;;7.66;79.94
82562;BME280;72228;51.208;10.468;2024-03-23T03:19:49;98106.75;;;7.67;80.76
82562;BME280;72228;51.208;10.468;2024-03-23T03:22:21;98085.63;;;7.62;81.54
82562;BME280;72228;51.208;10.468;2024-03-23T03:24:47;98065.06;;;7.68;82.48
82562;BME280;72228;51.208;10.468;2024-03-23T03:27:13;98061.16;;;7.61;83.27
82562;BME280;72228;51.208;10.468;2024-03-23T03:29:39;98069.69;;;7.50;83.02
82562;BME280;72228;51.208;10.468;2024-03-23T03:32:05;98080.53;;;7.38;84.26
82562;BME280;72228;51.208;10.468;2024-03-23T03:34:31;98067.69;;;7.34;84.47
82562;BME280;72228;51.208;10.468;2024-03-23T03:36:57;98056.50;;;7.30;84.79
82562;BME280;72228;51.208;10.468;2024-03-23T03:39:24;98035.44;;;7.34;85.06
82562;BME280;72228;51.208;10.468;2024-03-23T03:41:50;98039.81;;;7.35;85.55
82562;BME280;72228;51.208;10.468;2024-03-23T03:44:16;98034.59;;;7.25;84.62
82562;BME280;72228;51.208;10.468;2024-03-23T03:46:42;98035.53;;;7.20;85.25
82562;BME280;72228;51.208;10.468;2024-03-23T03:49:08;98033.09;;;7.19;85.81
82562;BME280;72228;51.208;10.468;2024-03-23T03:51:34;98027.91;;;7.17;85.55
82562;BME280;72228;51.208;10.468;2024-03-23T03:54:00;98011.19;;;7.14;85.16
82562;BME280;72228;51.208;10.468;2024-03-23T03:56:26;98020.59;;;7.13;85.62
82562;BME280;72228;51.208;10.468;2024-03-23T03:58:53;98012.94;;;7.10;85.38
82562;BME280;72228;51.208;10.468;2024-03-23T04:01:19;98014.59;;;7.11;85.46
82562;BME280;72228;51.208;10.468;2024-03-23T04:03:45;97995.31;;;7.11;85.52
82562;BME280;72228;51.208;10.468;2024-03-23T04:06:11;97990.28;;;7.13;84.07
82562;BME280;72228;51.208;10.468;2024-03-23T04:08:36;97982.00;;;7.13;84.27
82562;BME280;72228;51.208;10.468;2024-03-23T04:11:02;97971.31;;;7.20;86.13
82562;BME280;72228;51.208;10.468;2024-03-23T04:13:28;97973.91;;;7.16;85.49
82562;BME280;72228;51.208;10.468;2024-03-23T04:15:55;97972.13;;;7.12;83.90
82562;BME280;72228;51.208;10.468;2024-03-23T04:18:21;97970.50;;;7.11;83.22
82562;BME280;72228;51.208;10.468;2024-03-23T04:20:48;97965.94;;;7.15;84.32
82562;BME280;72228;51.208;10.468;2024-03-23T04:23:14;97968.09;;;7.18;83.99
82562;BME280;72228;51.208;10.468;2024-03-23T04:25:40;97952.03;;;7.20;83.84
82562;BME280;72228;51.208;10.468;2024-03-23T04:28:06;97943.75;;;7.20;84.49
82562;BME280;72228;51.208;10.468;2024-03-23T04:30:32;97947.16;;;7.17;84.70
82562;BME280;72228;51.208;10.468;2024-03-23T04:32:58;97940.34;;;7.14;85.08
82562;BME280;72228;51.208;10.468;2024-03-23T04:35:27;97933.53;;;7.12;85.43
82562;BME280;72228;51.208;10.468;2024-03-23T04:37:53;97932.72;;;7.11;85.82
82562;BME280;72228;51.208;10.468;2024-03-23T04:40:19;97929.91;;;7.03;85.94
82562;BME280;72228;51.208;10.468;2024-03-23T04:42:45;97935.09;;;6.95;86.94
82562;BME280;72228;51.208;10.468;2024-03-23T04:45:11;97930.22;;;6.92;86.54
82562;BME280;72228;51.208;10.468;2024-03-23T04:47:37;97936.38;;;6.89;88.21
82562;BME280;72228;51.208;10.468;2024-03-23T04:50:04;97939.72;;;6.78;88.36
82562;BME280;72228;51.208;10.468;2024-03-23T04:52:30;97937.09;;;6.72;89.35
82562;BME280;72228;51.208;10.468;2024-03-23T04:54:56;97945.97;;;6.61;90.32
82562;BME280;72228;51.208;10.468;2024-03-23T04:57:22;97937.47;;;6.49;91.45
82562;BME280;72228;51.208;10.468;2024-03-23T04:59:48;97934.38;;;6.41;92.14
82562;BME280;72228;51.208;10.468;2024-03-23T05:02:14;97932.88;;;6.35;92.74
82562;BME280;72228;51.208;10.468;2024-03-23T05:04:41;97930.91;;;6.27;93.80
82562;BME280;72228;51.208;10.468;2024-03-23T05:07:08;97932.84;;;6.27;93.43
82562;BME280;72228;51.208;10.468;2024-03-23T05:09:34;97930.22;;;6.22;94.24
82562;BME280;72228;51.208;10.468;2024-03-23T05:12:00;97942.66;;;6.19;94.49
82562;BME280;72228;51.208;10.468;2024-03-23T05:14:26;97928.72;;;6.15;94.95
82562;BME280;72228;51.208;10.468;2024-03-23T05:16:53;97925.91;;;6.07;95.05
82562;BME280;72228;51.208;10.468;2024-03-23T05:19:18;97929.94;;;6.01;94.18
82562;BME280;72228;51.208;10.468;2024-03-23T05:21:44;97931.97;;;5.95;95.02
82562;BME280;72228;51.208;10.468;2024-03-23T05:24:11;97936.47;;;5.91;94.95
82562;BME280;72228;51.208;10.468;2024-03-23T05:26:38;97925.16;;;5.93;94.77
82562;BME280;72228;51.208;10.468;2024-03-23T05:29:04;97928.81;;;5.88;94.01
82562;BME280;72228;51.208;10.468;2024-03-23T05:31:31;97928.00;;;5.87;94.95
82562;BME280;72228;51.208;10.468;2024-03-23T05:33:57;97930.97;;;5.91;94.27
82562;BME280;72228;51.208;10.468;2024-03-23T05:36:23;97933.59;;;5.82;95.18
82562;BME280;72228;51.208;10.468;2024-03-23T05:38:52;97933.94;;;5.81;94.24
82562;BME280;72228;51.208;10.468;2024-03-23T05:41:18;97936.50;;;5.77;93.40
82562;BME280;72228;51.208;10.468;2024-03-23T05:43:44;97947.63;;;5.72;93.22
82562;BME280;72228;51.208;10.468;2024-03-23T05:46:10;97939.50;;;5.67;92.81
82562;BME280;72228;51.208;10.468;2024-03-23T05:48:36;97944.66;;;5.69;93.30
82562;BME280;72228;51.208;10.468;2024-03-23T05:51:02;97950.72;;;5.57;93.08
82562;BME280;72228;51.208;10.468;2024-03-23T05:53:28;97956.03;;;5.53;93.20
82562;BME280;72228;51.208;10.468;2024-03-23T05:56:03;97970.69;;;5.49;92.50
82562;BME280;72228;51.208;10.468;2024-03-23T05:58:29;97968.38;;;5.42;92.37
82562;BME280;72228;51.208;10.468;2024-03-23T06:00:59;97973.16;;;5.36;91.74
82562;BME280;72228;51.208;10.468;2024-03-23T06:03:29;97975.84;;;5.28;90.90
82562;BME280;72228;51.208;10.468;2024-03-23T06:05:55;97983.38;;;5.22;91.89
82562;BME280;72228;51.208;10.468;2024-03-23T06:08:22;97978.47;;;5.19;92.71
82562;BME280;72228;51.208;10.468;2024-03-23T06:10:48;97983.06;;;5.10;91.24
82562;BME280;72228;51.208;10.468;2024-03-23T06:13:16;97977.69;;;5.05;91.90
82562;BME280;72228;51.208;10.468;2024-03-23T06:15:42;97988.13;;;4.89;90.61
82562;BME280;72228;51.208;10.468;2024-03-23T06:18:08;97992.50;;;4.76;90.45
82562;BME280;72228;51.208;10.468;2024-03-23T06:20:34;97998.16;;;4.66;91.00
82562;BME280;72228;51.208;10.468;2024-03-23T06:23:03;98002.34;;;4.50;90.45
82562;BME280;72228;51.208;10.468;2024-03-23T06:25:29;98007.25;;;4.34;90.42
82562;BME280;72228;51.208;10.468;2024-03-23T06:27:56;97998.34;;;4.10;90.38
82562;BME280;72228;51.208;10.468;2024-03-23T06:30:21;98007.63;;;3.95;90.79
82562;BME280;72228;51.208;10.468;2024-03-23T06:32:47;98017.41;;;3.82;90.39
82562;BME280;72228;51.208;10.468;2024-03-23T06:35:13;98026.38;;;3.69;90.86
82562;BME280;72228;51.208;10.468;2024-03-23T06:37:39;98032.00;;;3.59;91.06
82562;BME280;72228;51.208;10.468;2024-03-23T06:40:07;98045.16;;;3.57;91.41
82562;BME280;72228;51.208;10.468;2024-03-23T06:42:35;98047.09;;;3.56;92.18
82562;BME280;72228;51.208;10.468;2024-03-23T06:45:03;98042.78;;;3.50;92.45
82562;BME280;72228;51.208;10.468;2024-03-23T06:47:31;98044.72;;;3.49;92.36
82562;BME280;72228;51.208;10.468;2024-03-23T07:12:50;98076.38;;;3.13;91.71
82562;BME280;72228;51.208;10.468;2024-03-23T09:50:46;98287.81;;;7.85;76.31
82562;BME280;72228;51.208;10.468;2024-03-23T09:59:57;98293.50;;;6.99;75.70
82562;BME280;72228;51.208;10.468;2024-03-23T10:04:01;98284.72;;;6.97;74.98
82562;BME280;72228;51.208;10.468;2024-03-23T13:28:08;98288.53;;;5.45;76.91
82562;BME280;72228;51.208;10.468;2024-03-23T13:50:47;98287.25;;;7.74;73.38
82562;BME280;72228;51.208;10.468;2024-03-23T13:53:15;98272.63;;;8.05;70.59
82562;BME280;72228;51.208;10.468;2024-03-23T13:55:50;98271.91;;;8.30;68.98
82562;BME280;72228;51.208;10.468;2024-03-23T13:58:16;98261.81;;;8.66;69.24
82562;BME280;72228;51.208;10.468;2024-03-23T14:00:42;98275.97;;;8.64;66.89
82562;BME280;72228;51.208;10.468;2024-03-23T14:03:11;98264.72;;;8.60;65.46
82562;BME280;72228;51.208;10.468;2024-03-23T14:05:38;98270.00;;;8.88;64.10
82562;BME280;72228;51.208;10.468;2024-03-23T14:08:08;98266.09;;;8.89;60.28
82562;BME280;72228;51.208;10.468;2024-03-23T14:10:34;98268.69;;;8.94;61.62
82562;BME280;72228;51.208;10.468;2024-03-23T14:13:04;98269.75;;;8.50;59.11
82562;BME280;72228;51.208;10.468;2024-03-23T14:15:30;98261.78;;;8.48;60.05
82562;BME280;72228;51.208;10.468;2024-03-23T14:17:57;98258.31;;;8.34;59.56
82562;BME280;72228;51.208;10.468;2024-03-23T14:20:23;98249.19;;;8.99;60.16
82562;BME280;72228;51.208;10.468;2024-03-23T14:22:52;98247.03;;;9.39;59.93
82562;BME280;72228;51.208;10.468;2024-03-23T14:25:18;98249.97;;;8.74;60.21
82562;BME280;72228;51.208;10.468;2024-03-23T14:27:45;98253.28;;;8.36;61.27
82562;BME280;72228;51.208;10.468;2024-03-23T14:30:11;98254.44;;;7.95;62.16
82562;BME280;72228;51.208;10.468;2024-03-23T14:32:38;98250.53;;;7.96;61.98
82562;BME280;72228;51.208;10.468;2024-03-23T14:35:04;98254.91;;;7.97;61.98
82562;BME280;72228;51.208;10.468;2024-03-23T14:37:30;98243.38;;;7.95;62.74
82562;BME280;72228;51.208;10.468;2024-03-23T14:39:56;98242.66;;;7.81;63.80
82562;BME280;72228;51.208;10.468;2024-03-23T14:42:23;98252.78;;;7.94;64.20
82562;BME280;72228;51.208;10.468;2024-03-23T14:44:52;98272.88;;;7.86;65.37
82562;BME280;72228;51.208;10.468;2024-03-23T14:47:19;98288.47;;;7.37;66.84
82562;BME280;72228;51.208;10.468;2024-03-23T14:49:45;98302.75;;;6.12;68.00
82562;BME280;72228;51.208;10.468;2024-03-23T14:52:17;98290.16;;;5.78;74.65
82562;BME280;72228;51.208;10.468;2024-03-23T14:54:44;98317.91;;;5.63;77.81
82562;BME280;72228;51.208;10.468;2024-03-23T14:57:10;98298.31;;;5.18;80.13
82562;BME280;72228;51.208;10.468;2024-03-23T14:59:36;98300.53;;;4.78;83.91
82562;BME280;72228;51.208;10.468;2024-03-23T15:02:06;98290.53;;;5.06;85.03
82562;BME280;72228;51.208;10.468;2024-03-23T15:04:32;98283.78;;;5.18;83.19
82562;BME280;72228;51.208;10.468;2024-03-23T15:06:58;98283.13;;;5.72;83.50
82562;BME280;72228;51.208;10.468;2024-03-23T15:09:24;98284.75;;;5.73;81.84
82562;BME280;72228;51.208;10.468;2024-03-23T15:11:50;98286.06;;;6.22;82.68
82562;BME280;72228;51.208;10.468;2024-03-23T15:14:16;98277.78;;;6.22;79.85
82562;BME280;72228;51.208;10.468;2024-03-23T15:16:41;98273.59;;;6.52;80.88
82562;BME280;72228;51.208;10.468;2024-03-23T15:19:08;98275.69;;;6.83;80.10
82562;BME280;72228;51.208;10.468;2024-03-23T15:21:35;98272.72;;;6.93;76.97
82562;BME280;72228;51.208;10.468;2024-03-23T15:24:02;98277.56;;;6.60;76.72
82562;BME280;72228;51.208;10.468;2024-03-23T15:26:28;98278.16;;;7.07;78.61
82562;BME280;72228;51.208;10.468;2024-03-23T15:28:54;98280.50;;;6.77;77.15
82562;BME280;72228;51.208;10.468;2024-03-23T15:31:35;98273.25;;;7.04;76.16
82562;BME280;72228;51.208;10.468;2024-03-23T15:34:03;98266.81;;;6.72;76.55
82562;BME280;72228;51.208;10.468;2024-03-23T15:36:30;98261.94;;;6.69;74.73
82562;BME280;72228;51.208;10.468;2024-03-23T15:38:56;98252.72;;;6.37;75.19
82562;BME280;72228;51.208;10.468;2024-03-23T15:41:23;98247.31;;;6.32;77.18
82562;BME280;72228;51.208;10.468;2024-03-23T15:43:50;98236.69;;;6.39;75.50
82562;BME280;72228;51.208;10.468;2024-03-23T15:46:16;98228.25;;;6.22;75.68
82562;BME280;72228;51.208;10.468;2024-03-23T15:48:44;98236.72;;;6.12;74.84
82562;BME280;72228;51.208;10.468;2024-03-23T15:51:12;98239.59;;;6.07;74.80
82562;BME280;72228;51.208;10.468;2024-03-23T15:53:38;98233.38;;;6.15;75.53
82562;BME280;72228;51.208;10.468;2024-03-23T15:56:04;98226.84;;;6.11;75.72
82562;BME280;72228;51.208;10.468;2024-03-23T15:58:32;98226.34;;;6.09;74.96
82562;BME280;72228;51.208;10.468;2024-03-23T16:01:06;98224.50;;;6.04;75.14
82562;BME280;72228;51.208;10.468;2024-03-23T16:03:35;98227.38;;;6.13;76.65
82562;BME280;72228;51.208;10.468;2024-03-23T16:06:20;98216.53;;;6.16;77.08
82562;BME280;72228;51.208;10.468;2024-03-23T16:08:46;98206.97;;;6.14;75.37
82562;BME280;72228;51.208;10.468;2024-03-23T16:11:30;98206.88;;;6.19;75.61
82562;BME280;72228;51.208;10.468;2024-03-23T16:13:56;98201.66;;;6.17;73.75
82562;BME280;72228;51.208;10.468;2024-03-23T16:16:23;98205.84;;;6.15;74.08
82562;BME280;72228;51.208;10.468;2024-03-23T16:18:49;98198.63;;;6.19;74.67
82562;BME280;72228;51.208;10.468;2024-03-23T16:21:15;98197.47;;;6.20;73.68
82562;BME280;72228;51.208;10.468;2024-03-23T16:23:42;98189.81;;;6.17;73.95
82562;BME280;72228;51.208;10.468;2024-03-23T16:26:10;98187.72;;;6.14;74.58
82562;BME280;72228;51.208;10.468;2024-03-23T16:28:38;98188.31;;;6.11;73.32
82562;BME280;72228;51.208;10.468;2024-03-23T16:31:08;98188.94;;;6.08;74.35
82562;BME280;72228;51.208;10.468;2024-03-23T16:33:36;98190.25;;;6.10;74.19
82562;BME280;72228;51.208;10.468;2024-03-23T16:38:31;98189.84;;;6.03;74.12
82562;BME280;72228;51.208;10.468;2024-03-23T16:43:27;98200.44;;;6.10;73.75
82562;BME280;72228;51.208;10.468;2024-03-23T16:45:56;98199.31;;;6.11;73.79
82562;BME280;72228;51.208;10.468;2024-03-23T16:48:23;98194.53;;;6.16;74.22
82562;BME280;72228;51.208;10.468;2024-03-23T16:50:49;98197.38;;;6.11;74.20
82562;BME280;72228;51.208;10.468;2024-03-23T16:53:15;98196.56;;;6.11;74.00
82562;BME280;72228;51.208;10.468;2024-03-23T16:55:42;98187.81;;;6.09;73.49
82562;BME280;72228;51.208;10.468;2024-03-23T16:58:07;98194.72;;;6.06;72.36
82562;BME280;72228;51.208;10.468;2024-03-23T17:00:36;98190.56;;;6.09;70.58
82562;BME280;72228;51.208;10.468;2024-03-23T17:03:03;98195.97;;;6.14;70.37
82562;BME280;72228;51.208;10.468;2024-03-23T17:05:29;98198.63;;;6.19;70.67
82562;BME280;72228;51.208;10.468;2024-03-23T17:08:01;98200.00;;;6.30;72.69
82562;BME280;72228;51.208;10.468;2024-03-23T17:10:28;98200.09;;;6.39;72.92
82562;BME280;72228;51.208;10.468;2024-03-23T17:12:54;98201.84;;;6.35;69.31
82562;BME280;72228;51.208;10.468;2024-03-23T17:15:20;98194.69;;;6.34;68.61
82562;BME280;72228;51.208;10.468;2024-03-23T17:17:49;98190.22;;;6.38;70.00
82562;BME280;72228;51.208;10.468;2024-03-23T17:20:15;98210.41;;;6.33;70.79
82562;BME280;72228;51.208;10.468;2024-03-23T17:22:41;98204.91;;;6.33;70.93
82562;BME280;72228;51.208;10.468;2024-03-23T17:25:08;98208.78;;;6.32;70.97
82562;BME280;72228;51.208;10.468;2024-03-23T17:27:35;98203.38;;;6.27;69.77
82562;BME280;72228;51.208;10.468;2024-03-23T17:30:01;98203.69;;;6.26;70.46
82562;BME280;72228;51.208;10.468;2024-03-23T17:32:27;98205.75;;;6.20;71.29
82562;BME280;72228;51.208;10.468;2024-03-23T17:34:54;98210.22;;;6.16;70.54
82562;BME280;72228;51.208;10.468;2024-03-23T17:37:20;98195.56;;;6.07;71.45
82562;BME280;72228;51.208;10.468;2024-03-23T17:39:48;98214.41;;;6.00;69.85
82562;BME280;72228;51.208;10.468;2024-03-23T17:42:14;98209.84;;;5.95;68.92
82562;BME280;72228;51.208;10.468;2024-03-23T17:44:41;98214.88;;;5.88;70.18
82562;BME280;72228;51.208;10.468;2024-03-23T17:47:07;98216.91;;;5.82;71.30
82562;BME280;72228;51.208;10.468;2024-03-23T17:49:33;98223.53;;;5.81;70.93
82562;BME280;72228;51.208;10.468;2024-03-23T17:52:00;98215.78;;;5.70;71.53
82562;BME280;72228;51.208;10.468;2024-03-23T17:54:33;98223.44;;;5.59;70.77
82562;BME280;72228;51.208;10.468;2024-03-23T17:56:59;98226.25;;;5.54;69.07
82562;BME280;72228;51.208;10.468;2024-03-23T17:59:25;98230.81;;;5.45;68.70
82562;BME280;72228;51.208;10.468;2024-03-23T18:01:51;98228.34;;;5.29;69.03
82562;BME280;72228;51.208;10.468;2024-03-23T18:04:17;98229.25;;;5.25;69.32
82562;BME280;72228;51.208;10.468;2024-03-23T18:06:43;98234.31;;;5.18;69.80
82562;BME280;72228;51.208;10.468;2024-03-23T18:09:09;98232.22;;;5.09;69.55
82562;BME280;72228;51.208;10.468;2024-03-23T18:11:35;98232.09;;;5.01;70.32
82562;BME280;72228;51.208;10.468;2024-03-23T18:14:01;98230.47;;;5.00;67.99
82562;BME280;72228;51.208;10.468;2024-03-23T18:16:27;98219.22;;;4.82;70.33
82562;BME280;72228;51.208;10.468;2024-03-23T18:18:54;98215.34;;;4.65;70.59
82562;BME280;72228;51.208;10.468;2024-03-23T18:21:20;98218.84;;;4.51;72.31
82562;BME280;72228;51.208;10.468;2024-03-23T18:23:46;98223.16;;;4.39;71.38
82562;BME280;72228;51.208;10.468;2024-03-23T18:26:12;98226.53;;;4.30;72.51
82562;BME280;72228;51.208;10.468;2024-03-23T18:28:38;98231.34;;;4.20;72.52
82562;BME280;72228;51.208;10.468;2024-03-23T18:31:04;98223.50;;;4.13;72.44
82562;BME280;72228;51.208;10.468;2024-03-23T18:33:34;98220.25;;;4.06;72.95
82562;BME280;72228;51.208;10.468;2024-03-23T18:36:01;98223.97;;;3.96;73.07
82562;BME280;72228;51.208;10.468;2024-03-23T18:38:27;98221.53;;;3.95;73.06
82562;BME280;72228;51.208;10.468;2024-03-23T18:40:53;98218.06;;;3.84;74.04
82562;BME280;72228;51.208;10.468;2024-03-23T18:43:20;98223.66;;;3.74;74.60
82562;BME280;72228;51.208;10.468;2024-03-23T18:48:13;98224.66;;;3.59;75.12
82562;BME280;72228;51.208;10.468;2024-03-23T18:50:38;98220.38;;;3.48;75.34
82562;BME280;72228;51.208;10.468;2024-03-23T18:53:04;98219.97;;;3.36;76.23
82562;BME280;72228;51.208;10.468;2024-03-23T18:55:30;98220.28;;;3.29;76.49
82562;BME280;72228;51.208;10.468;2024-03-23T18:57:56;98216.19;;;3.27;75.85
82562;BME280;72228;51.208;10.468;2024-03-23T19:00:24;98215.69;;;3.25;77.88
82562;BME280;72228;51.208;10.468;2024-03-23T19:02:50;98216.31;;;3.16;76.72
82562;BME280;72228;51.208;10.468;2024-03-23T19:05:16;98217.97;;;3.12;76.71
82562;BME280;72228;51.208;10.468;2024-03-23T19:07:42;98218.06;;;3.02;77.57
82562;BME280;72228;51.208;10.468;2024-03-23T19:10:08;98214.28;;;2.98;77.83
82562;BME280;72228;51.208;10.468;2024-03-23T19:12:35;98204.00;;;3.14;77.79
82562;BME280;72228;51.208;10.468;2024-03-23T19:15:01;98216.69;;;3.05;78.50
82562;BME280;72228;51.208;10.468;2024-03-23T19:17:28;98216.88;;;3.13;78.32
82562;BME280;72228;51.208;10.468;2024-03-23T19:19:54;98205.09;;;3.13;78.62
82562;BME280;72228;51.208;10.468;2024-03-23T19:22:20;98212.59;;;3.02;79.70
82562;BME280;72228;51.208;10.468;2024-03-23T19:24:48;98212.59;;;3.02;80.74
82562;BME280;72228;51.208;10.468;2024-03-23T19:27:14;98218.06;;;3.02;80.95
82562;BME280;72228;51.208;10.468;2024-03-23T19:29:40;98219.66;;;3.08;81.75
82562;BME280;72228;51.208;10.468;2024-03-23T19:32:06;98211.53;;;2.98;82.04
82562;BME280;72228;51.208;10.468;2024-03-23T19:34:31;98215.81;;;3.09;81.63
82562;BME280;72228;51.208;10.468;2024-03-23T19:36:57;98215.72;;;3.19;81.07
82562;BME280;72228;51.208;10.468;2024-03-23T19:39:42;98214.72;;;3.10;81.93
82562;BME280;72228;51.208;10.468;2024-03-23T19:42:08;98212.59;;;3.02;82.58
82562;BME280;72228;51.208;10.468;2024-03-23T19:44:34;98212.44;;;2.88;82.66
82562;BME280;72228;51.208;10.468;2024-03-23T19:47:00;98217.59;;;2.90;82.88
82562;BME280;72228;51.208;10.468;2024-03-23T19:49:27;98223.13;;;2.85;83.94
82562;BME280;72228;51.208;10.468;2024-03-23T19:51:53;98229.72;;;2.79;84.21
82562;BME280;72228;51.208;10.468;2024-03-23T19:54:19;98233.03;;;2.81;83.76
82562;BME280;72228;51.208;10.468;2024-03-23T19:56:45;98224.56;;;2.77;83.66
82562;BME280;72228;51.208;10.468;2024-03-23T19:59:13;98234.19;;;2.69;84.14
82562;BME280;72228;51.208;10.468;2024-03-23T20:01:39;98229.44;;;2.85;83.97
82562;BME280;72228;51.208;10.468;2024-03-23T20:04:05;98228.09;;;2.78;83.47
82562;BME280;72228;51.208;10.468;2024-03-23T20:06:31;98230.38;;;2.65;84.03
82562;BME280;72228;51.208;10.468;2024-03-23T20:08:57;98231.59;;;2.49;85.00
82562;BME280;72228;51.208;10.468;2024-03-23T20:11:24;98226.69;;;2.46;85.83
82562;BME280;72228;51.208;10.468;2024-03-23T20:13:50;98232.19;;;2.36;85.74
82562;BME280;72228;51.208;10.468;2024-03-23T20:16:16;98240.19;;;2.27;86.46
82562;BME280;72228;51.208;10.468;2024-03-23T20:18:43;98239.97;;;2.19;86.77
82562;BME280;72228;51.208;10.468;2024-03-23T20:21:09;98240.81;;;2.14;87.04
82562;BME280;72228;51.208;10.468;2024-03-23T20:23:34;98237.28;;;2.08;86.35
82562;BME280;72228;51.208;10.468;2024-03-23T20:26:03;98239.75;;;2.00;86.30
82562;BME280;72228;51.208;10.468;2024-03-23T20:28:30;98250.41;;;2.06;87.42
82562;BME280;72228;51.208;10.468;2024-03-23T20:30:58;98242.75;;;2.03;87.58
82562;BME280;72228;51.208;10.468;2024-03-23T20:33:25;98247.44;;;1.98;87.20
82562;BME280;72228;51.208;10.468;2024-03-23T20:35:51;98250.44;;;1.96;87.92
82562;BME280;72228;51.208;10.468;2024-03-23T20:38:21;98248.03;;;1.84;88.05
82562;BME280;72228;51.208;10.468;2024-03-23T20:40:54;98251.34;;;1.76;88.28
82562;BME280;72228;51.208;10.468;2024-03-23T20:43:21;98254.09;;;1.71;88.03
82562;BME280;72228;51.208;10.468;2024-03-23T20:46:02;98245.91;;;1.61;88.12
82562;BME280;72228;51.208;10.468;2024-03-23T20:48:30;98249.75;;;1.55;88.60
82562;BME280;72228;51.208;10.468;2024-03-23T20:51:02;98253.28;;;1.50;88.73
82562;BME280;72228;51.208;10.468;2024-03-23T20:53:29;98247.81;;;1.50;89.11
82562;BME280;72228;51.208;10.468;2024-03-23T20:55:59;98245.09;;;1.50;89.12
82562;BME280;72228;51.208;10.468;2024-03-23T20:58:27;98247.31;;;1.43;89.56
82562;BME280;72228;51.208;10.468;2024-03-23T21:00:54;98249.75;;;1.45;89.29
82562;BME280;72228;51.208;10.468;2024-03-23T21:03:23;98245.66;;;1.42;89.74
82562;BME280;72228;51.208;10.468;2024-03-23T21:05:52;98252.75;;;1.38;90.39
82562;BME280;72228;51.208;10.468;2024-03-23T21:08:19;98258.50;;;1.37;89.91
82562;BME280;72228;51.208;10.468;2024-03-23T21:10:53;98253.63;;;1.33;90.99
82562;BME280;72228;51.208;10.468;2024-03-23T21:13:20;98251.13;;;1.27;90.70
82562;BME280;72228;51.208;10.468;2024-03-23T21:15:51;98247.59;;;1.21;90.93
82562;BME280;72228;51.208;10.468;2024-03-23T21:20:54;98248.97;;;1.19;90.79
82562;BME280;72228;51.208;10.468;2024-03-23T21:23:21;98248.97;;;1.19;90.96
82562;BME280;72228;51.208;10.468;2024-03-23T21:25:57;98249.50;;;1.21;90.75
82562;BME280;72228;51.208;10.468;2024-03-23T21:28:23;98252.50;;;1.19;90.57
82562;BME280;72228;51.208;10.468;2024-03-23T21:30:49;98249.53;;;1.16;90.31
82562;BME280;72228;51.208;10.468;2024-03-23T21:33:15;98244.31;;;1.14;90.99
82562;BME280;72228;51.208;10.468;2024-03-23T21:35:41;98247.34;;;1.07;90.55
82562;BME280;72228;51.208;10.468;2024-03-23T21:38:07;98244.88;;;1.06;90.79
82562;BME280;72228;51.208;10.468;2024-03-23T21:40:33;98248.72;;;1.05;91.33
82562;BME280;72228;51.208;10.468;2024-03-23T21:42:59;98240.53;;;1.05;90.59
82562;BME280;72228;51.208;10.468;2024-03-23T21:45:25;98239.16;;;1.07;90.50
82562;BME280;72228;51.208;10.468;2024-03-23T21:47:50;98238.06;;;1.03;89.88
82562;BME280;72228;51.208;10.468;2024-03-23T21:50:16;98236.13;;;1.09;89.51
82562;BME280;72228;51.208;10.468;2024-03-23T21:52:42;98236.69;;;1.16;89.14
82562;BME280;72228;51.208;10.468;2024-03-23T21:55:08;98238.63;;;1.16;88.43
82562;BME280;72228;51.208;10.468;2024-03-23T21:57:37;98236.13;;;1.29;88.79
82562;BME280;72228;51.208;10.468;2024-03-23T22:00:05;98236.94;;;1.40;87.47
82562;BME280;72228;51.208;10.468;2024-03-23T22:02:38;98230.63;;;1.45;86.57
82562;BME280;72228;51.208;10.468;2024-03-23T22:05:04;98229.81;;;1.49;86.78
82562;BME280;72228;51.208;10.468;2024-03-23T22:07:30;98225.97;;;1.55;86.68
82562;BME280;72228;51.208;10.468;2024-03-23T22:09:56;98215.03;;;1.55;86.86
82562;BME280;72228;51.208;10.468;2024-03-23T22:12:21;98212.31;;;1.60;85.95
82562;BME280;72228;51.208;10.468;2024-03-23T22:14:51;98212.59;;;1.59;86.27
82562;BME280;72228;51.208;10.468;2024-03-23T22:17:17;98218.28;;;1.63;85.54
82562;BME280;72228;51.208;10.468;2024-03-23T22:19:46;98208.47;;;1.56;86.17
82562;BME280;72228;51.208;10.468;2024-03-23T22:22:12;98199.75;;;1.49;86.52